sensor_id;sensor_type;location;lat;lon;timestamp;P1;durP1;ratioP1;P2;durP2;ratioP2
5841;SDS011;2947;52.276;9.946;2023-05-24T00:01:41;14.23;;;2.90;;
5841;SDS011;2947;52.276;9.946;2023-05-24T00:04:07;13.27;;;3.63;;
5841;SDS011;2947;52.276;9.946;2023-05-24T00:06:35;18.57;;;3.70;;
5841;SDS011;2947;52.276;9.946;2023-05-24T00:09:01;24.37;;;3.37;;
5841;SDS011;2947;52.276;9.946;2023-05-24T00:11:29;13.73;;;3.07;;
5841;SDS011;2947;52.276;9.946;2023-05-24T00:13:55;13.47;;;2.20;;
5841;SDS011;2947;52.276;9.946;2023-05-24T00:16:22;16.67;;;2.77;;
5841;SDS011;2947;52.276;9.946;2023-05-24T00:18:48;13.37;;;2.87;;
5841;SDS011;2947;52.276;9.946;2023-05-24T00:21:14;11.63;;;2.43;;
5841;SDS011;2947;52.276;9.946;2023-05-24T00:23:40;14.10;;;3.07;;
5841;SDS011;2947;52.276;9.946;2023-05-24T00:26:06;13.13;;;2.23;;
5841;SDS011;2947;52.276;9.946;2023-05-24T00:28:33;16.43;;;2.60;;
5841;SDS011;2947;52.276;9.946;2023-05-24T00:30:59;12.67;;;2.97;;
5841;SDS011;2947;52.276;9.946;2023-05-24T00:33:25;20.40;;;3.10;;
5841;SDS011;2947;52.276;9.946;2023-05-24T00:35:52;15.80;;;2.93;;
5841;SDS011;2947;52.276;9.946;2023-05-24T00:38:22;7.97;;;2.53;;
5841;SDS011;2947;52.276;9.946;2023-05-24T00:40:49;16.80;;;3.70;;
5841;SDS011;2947;52.276;9.946;2023-05-24T00:43:15;12.60;;;2.93;;
5841;SDS011;2947;52.276;9.946;2023-05-24T00:45:42;17.03;;;3.57;;
5841;SDS011;2947;52.276;9.946;2023-05-24T00:48:08;15.20;;;4.17;;
5841;SDS011;2947;52.276;9.946;2023-05-24T00:50:37;17.43;;;3.63;;
5841;SDS011;2947;52.276;9.946;2023-05-24T00:53:04;22.53;;;3.53;;
5841;SDS011;2947;52.276;9.946;2023-05-24T00:55:31;17.43;;;3.70;;
5841;SDS011;2947;52.276;9.946;2023-05-24T00:57:59;16.47;;;3.60;;
5841;SDS011;2947;52.276;9.946;2023-05-24T01:00:25;18.73;;;3.20;;
5841;SDS011;2947;52.276;9.946;2023-05-24T01:02:51;18.27;;;3.00;;
5841;SDS011;2947;52.276;9.946;2023-05-24T01:05:19;19.47;;;3.50;;
5841;SDS011;2947;52.276;9.946;2023-05-24T01:08:21;14.20;;;3.00;;
5841;SDS011;2947;52.276;9.946;2023-05-24T01:11:12;21.33;;;3.47;;
5841;SDS011;2947;52.276;9.946;2023-05-24T01:17:18;23.57;;;5.70;;
5841;SDS011;2947;52.276;9.946;2023-05-24T01:20:06;17.20;;;2.90;;
5841;SDS011;2947;52.276;9.946;2023-05-24T01:25:22;13.10;;;3.50;;
5841;SDS011;2947;52.276;9.946;2023-05-24T01:28:10;13.53;;;3.00;;
5841;SDS011;2947;52.276;9.946;2023-05-24T01:30:40;14.47;;;3.03;;
5841;SDS011;2947;52.276;9.946;2023-05-24T01:33:06;20.90;;;4.27;;
5841;SDS011;2947;52.276;9.946;2023-05-24T01:35:32;21.20;;;3.90;;
5841;SDS011;2947;52.276;9.946;2023-05-24T01:38:04;23.47;;;4.13;;
5841;SDS011;2947;52.276;9.946;2023-05-24T01:40:34;16.00;;;3.20;;
5841;SDS011;2947;52.276;9.946;2023-05-24T01:46:00;29.83;;;4.00;;
5841;SDS011;2947;52.276;9.946;2023-05-24T01:49:05;15.10;;;3.40;;
5841;SDS011;2947;52.276;9.946;2023-05-24T01:51:52;13.87;;;3.70;;
5841;SDS011;2947;52.276;9.946;2023-05-24T01:54:24;21.93;;;5.57;;
5841;SDS011;2947;52.276;9.946;2023-05-24T01:56:52;12.53;;;3.23;;
5841;SDS011;2947;52.276;9.946;2023-05-24T01:59:20;18.33;;;3.93;;
5841;SDS011;2947;52.276;9.946;2023-05-24T02:01:47;32.37;;;4.30;;
5841;SDS011;2947;52.276;9.946;2023-05-24T02:04:13;23.37;;;4.47;;
5841;SDS011;2947;52.276;9.946;2023-05-24T02:06:39;18.83;;;4.20;;
5841;SDS011;2947;52.276;9.946;2023-05-24T02:09:04;25.30;;;4.70;;
5841;SDS011;2947;52.276;9.946;2023-05-24T02:11:30;29.90;;;4.80;;
5841;SDS011;2947;52.276;9.946;2023-05-24T02:13:56;16.30;;;4.70;;
5841;SDS011;2947;52.276;9.946;2023-05-24T02:16:21;24.80;;;4.07;;
5841;SDS011;2947;52.276;9.946;2023-05-24T02:18:50;23.97;;;4.33;;
5841;SDS011;2947;52.276;9.946;2023-05-24T02:21:16;23.27;;;4.40;;
5841;SDS011;2947;52.276;9.946;2023-05-24T02:23:42;18.80;;;3.30;;
5841;SDS011;2947;52.276;9.946;2023-05-24T02:26:08;22.30;;;4.27;;
5841;SDS011;2947;52.276;9.946;2023-05-24T02:28:36;18.37;;;5.20;;
5841;SDS011;2947;52.276;9.946;2023-05-24T02:31:01;21.93;;;3.50;;
5841;SDS011;2947;52.276;9.946;2023-05-24T02:33:27;16.87;;;4.30;;
5841;SDS011;2947;52.276;9.946;2023-05-24T02:35:54;22.17;;;5.40;;
5841;SDS011;2947;52.276;9.946;2023-05-24T02:38:20;18.50;;;4.07;;
5841;SDS011;2947;52.276;9.946;2023-05-24T02:40:46;22.33;;;4.23;;
5841;SDS011;2947;52.276;9.946;2023-05-24T02:43:12;20.20;;;3.40;;
5841;SDS011;2947;52.276;9.946;2023-05-24T02:45:38;21.30;;;4.83;;
5841;SDS011;2947;52.276;9.946;2023-05-24T02:48:04;25.40;;;4.60;;
5841;SDS011;2947;52.276;9.946;2023-05-24T02:50:29;24.17;;;4.73;;
5841;SDS011;2947;52.276;9.946;2023-05-24T02:52:55;21.27;;;4.20;;
5841;SDS011;2947;52.276;9.946;2023-05-24T02:55:21;15.37;;;4.17;;
5841;SDS011;2947;52.276;9.946;2023-05-24T02:57:46;25.33;;;4.37;;
5841;SDS011;2947;52.276;9.946;2023-05-24T03:00:12;34.43;;;4.90;;
5841;SDS011;2947;52.276;9.946;2023-05-24T03:02:39;15.20;;;4.13;;
5841;SDS011;2947;52.276;9.946;2023-05-24T03:05:05;31.83;;;6.03;;
5841;SDS011;2947;52.276;9.946;2023-05-24T03:07:31;20.00;;;4.50;;
5841;SDS011;2947;52.276;9.946;2023-05-24T03:09:57;22.57;;;4.03;;
5841;SDS011;2947;52.276;9.946;2023-05-24T03:12:23;26.33;;;5.13;;
5841;SDS011;2947;52.276;9.946;2023-05-24T03:14:49;24.23;;;4.87;;
5841;SDS011;2947;52.276;9.946;2023-05-24T03:17:14;21.60;;;4.30;;
5841;SDS011;2947;52.276;9.946;2023-05-24T03:19:40;15.97;;;5.47;;
5841;SDS011;2947;52.276;9.946;2023-05-24T03:22:06;25.80;;;5.30;;
5841;SDS011;2947;52.276;9.946;2023-05-24T03:24:32;24.30;;;4.80;;
5841;SDS011;2947;52.276;9.946;2023-05-24T03:26:58;31.63;;;4.37;;
5841;SDS011;2947;52.276;9.946;2023-05-24T03:29:24;22.90;;;5.83;;
5841;SDS011;2947;52.276;9.946;2023-05-24T03:31:50;30.53;;;4.33;;
5841;SDS011;2947;52.276;9.946;2023-05-24T03:34:16;39.63;;;5.30;;
5841;SDS011;2947;52.276;9.946;2023-05-24T03:36:42;35.50;;;5.47;;
5841;SDS011;2947;52.276;9.946;2023-05-24T03:39:08;16.83;;;4.10;;
5841;SDS011;2947;52.276;9.946;2023-05-24T03:41:33;19.80;;;4.70;;
5841;SDS011;2947;52.276;9.946;2023-05-24T03:43:59;29.83;;;4.70;;
5841;SDS011;2947;52.276;9.946;2023-05-24T03:46:25;28.43;;;4.93;;
5841;SDS011;2947;52.276;9.946;2023-05-24T03:48:50;21.83;;;4.83;;
5841;SDS011;2947;52.276;9.946;2023-05-24T03:51:16;27.53;;;4.77;;
5841;SDS011;2947;52.276;9.946;2023-05-24T03:53:42;27.93;;;4.20;;
5841;SDS011;2947;52.276;9.946;2023-05-24T03:56:08;32.17;;;4.70;;
5841;SDS011;2947;52.276;9.946;2023-05-24T03:58:33;23.93;;;5.10;;
5841;SDS011;2947;52.276;9.946;2023-05-24T04:00:59;28.13;;;4.83;;
5841;SDS011;2947;52.276;9.946;2023-05-24T04:03:25;24.20;;;4.03;;
5841;SDS011;2947;52.276;9.946;2023-05-24T04:05:52;28.33;;;4.80;;
5841;SDS011;2947;52.276;9.946;2023-05-24T04:08:18;21.70;;;4.67;;
5841;SDS011;2947;52.276;9.946;2023-05-24T04:10:44;26.43;;;5.07;;
5841;SDS011;2947;52.276;9.946;2023-05-24T04:13:10;31.00;;;6.00;;
5841;SDS011;2947;52.276;9.946;2023-05-24T04:15:35;27.40;;;5.47;;
5841;SDS011;2947;52.276;9.946;2023-05-24T04:18:04;28.63;;;4.90;;
5841;SDS011;2947;52.276;9.946;2023-05-24T04:20:30;34.87;;;5.53;;
5841;SDS011;2947;52.276;9.946;2023-05-24T04:22:56;19.93;;;5.63;;
5841;SDS011;2947;52.276;9.946;2023-05-24T04:25:22;23.17;;;4.93;;
5841;SDS011;2947;52.276;9.946;2023-05-24T04:27:47;28.17;;;6.37;;
5841;SDS011;2947;52.276;9.946;2023-05-24T04:30:14;24.30;;;5.50;;
5841;SDS011;2947;52.276;9.946;2023-05-24T04:32:40;35.43;;;5.00;;
5841;SDS011;2947;52.276;9.946;2023-05-24T04:35:10;33.47;;;5.20;;
5841;SDS011;2947;52.276;9.946;2023-05-24T04:37:36;21.77;;;4.87;;
5841;SDS011;2947;52.276;9.946;2023-05-24T04:40:04;30.87;;;5.40;;
5841;SDS011;2947;52.276;9.946;2023-05-24T04:42:31;27.10;;;5.37;;
5841;SDS011;2947;52.276;9.946;2023-05-24T04:44:58;23.57;;;4.70;;
5841;SDS011;2947;52.276;9.946;2023-05-24T04:47:24;30.50;;;4.80;;
5841;SDS011;2947;52.276;9.946;2023-05-24T04:49:51;37.13;;;5.27;;
5841;SDS011;2947;52.276;9.946;2023-05-24T04:52:17;22.43;;;4.50;;
5841;SDS011;2947;52.276;9.946;2023-05-24T04:54:43;24.87;;;5.30;;
5841;SDS011;2947;52.276;9.946;2023-05-24T04:57:09;29.37;;;4.90;;
5841;SDS011;2947;52.276;9.946;2023-05-24T04:59:34;25.77;;;5.23;;
5841;SDS011;2947;52.276;9.946;2023-05-24T05:02:00;26.60;;;4.57;;
5841;SDS011;2947;52.276;9.946;2023-05-24T05:04:26;32.50;;;5.50;;
5841;SDS011;2947;52.276;9.946;2023-05-24T05:06:52;29.27;;;4.73;;
5841;SDS011;2947;52.276;9.946;2023-05-24T05:09:17;30.87;;;5.33;;
5841;SDS011;2947;52.276;9.946;2023-05-24T05:11:45;27.43;;;5.17;;
5841;SDS011;2947;52.276;9.946;2023-05-24T05:14:11;23.30;;;5.90;;
5841;SDS011;2947;52.276;9.946;2023-05-24T05:16:36;16.93;;;4.57;;
5841;SDS011;2947;52.276;9.946;2023-05-24T05:19:02;19.20;;;5.47;;
5841;SDS011;2947;52.276;9.946;2023-05-24T05:21:29;20.67;;;4.33;;
5841;SDS011;2947;52.276;9.946;2023-05-24T05:23:57;25.33;;;5.03;;
5841;SDS011;2947;52.276;9.946;2023-05-24T05:26:26;33.00;;;6.60;;
5841;SDS011;2947;52.276;9.946;2023-05-24T05:28:52;23.13;;;5.13;;
5841;SDS011;2947;52.276;9.946;2023-05-24T05:31:21;25.37;;;4.97;;
5841;SDS011;2947;52.276;9.946;2023-05-24T05:33:48;26.97;;;4.30;;
5841;SDS011;2947;52.276;9.946;2023-05-24T05:36:14;24.03;;;5.47;;
5841;SDS011;2947;52.276;9.946;2023-05-24T05:38:40;24.33;;;5.53;;
5841;SDS011;2947;52.276;9.946;2023-05-24T05:41:06;19.07;;;4.90;;
5841;SDS011;2947;52.276;9.946;2023-05-24T05:43:32;21.63;;;4.90;;
5841;SDS011;2947;52.276;9.946;2023-05-24T05:45:58;23.20;;;5.20;;
5841;SDS011;2947;52.276;9.946;2023-05-24T05:48:24;35.97;;;5.60;;
5841;SDS011;2947;52.276;9.946;2023-05-24T05:50:51;23.73;;;4.90;;
5841;SDS011;2947;52.276;9.946;2023-05-24T05:53:16;23.00;;;4.30;;
5841;SDS011;2947;52.276;9.946;2023-05-24T05:55:42;29.10;;;4.60;;
5841;SDS011;2947;52.276;9.946;2023-05-24T05:58:09;14.60;;;4.00;;
5841;SDS011;2947;52.276;9.946;2023-05-24T06:00:35;22.57;;;4.83;;
5841;SDS011;2947;52.276;9.946;2023-05-24T06:03:02;26.00;;;4.73;;
5841;SDS011;2947;52.276;9.946;2023-05-24T06:05:27;18.83;;;4.13;;
5841;SDS011;2947;52.276;9.946;2023-05-24T06:07:53;22.97;;;5.13;;
5841;SDS011;2947;52.276;9.946;2023-05-24T06:10:19;19.70;;;4.17;;
5841;SDS011;2947;52.276;9.946;2023-05-24T06:12:45;20.27;;;4.30;;
5841;SDS011;2947;52.276;9.946;2023-05-24T06:15:11;16.67;;;4.00;;
5841;SDS011;2947;52.276;9.946;2023-05-24T06:17:37;21.80;;;4.50;;
5841;SDS011;2947;52.276;9.946;2023-05-24T06:20:03;20.27;;;4.80;;
5841;SDS011;2947;52.276;9.946;2023-05-24T06:22:34;19.23;;;4.70;;
5841;SDS011;2947;52.276;9.946;2023-05-24T06:25:01;21.03;;;5.90;;
5841;SDS011;2947;52.276;9.946;2023-05-24T06:27:28;22.27;;;5.03;;
5841;SDS011;2947;52.276;9.946;2023-05-24T06:29:54;30.80;;;6.10;;
5841;SDS011;2947;52.276;9.946;2023-05-24T06:32:20;27.33;;;4.40;;
5841;SDS011;2947;52.276;9.946;2023-05-24T06:34:45;14.37;;;4.53;;
5841;SDS011;2947;52.276;9.946;2023-05-24T06:37:11;24.50;;;4.50;;
5841;SDS011;2947;52.276;9.946;2023-05-24T06:39:38;32.87;;;4.87;;
5841;SDS011;2947;52.276;9.946;2023-05-24T06:42:05;22.67;;;4.57;;
5841;SDS011;2947;52.276;9.946;2023-05-24T06:44:31;24.80;;;4.40;;
5841;SDS011;2947;52.276;9.946;2023-05-24T06:46:58;22.43;;;4.57;;
5841;SDS011;2947;52.276;9.946;2023-05-24T06:49:25;21.87;;;5.30;;
5841;SDS011;2947;52.276;9.946;2023-05-24T06:51:51;25.92;;;4.97;;
5841;SDS011;2947;52.276;9.946;2023-05-24T06:54:16;16.20;;;4.60;;
5841;SDS011;2947;52.276;9.946;2023-05-24T06:56:43;27.30;;;6.00;;
5841;SDS011;2947;52.276;9.946;2023-05-24T06:59:08;20.83;;;4.30;;
5841;SDS011;2947;52.276;9.946;2023-05-24T07:01:34;26.65;;;4.88;;
5841;SDS011;2947;52.276;9.946;2023-05-24T07:04:03;31.48;;;5.75;;
5841;SDS011;2947;52.276;9.946;2023-05-24T07:06:33;20.73;;;4.50;;
5841;SDS011;2947;52.276;9.946;2023-05-24T07:09:01;26.67;;;4.20;;
5841;SDS011;2947;52.276;9.946;2023-05-24T07:11:28;30.52;;;4.93;;
5841;SDS011;2947;52.276;9.946;2023-05-24T07:13:55;23.77;;;5.38;;
5841;SDS011;2947;52.276;9.946;2023-05-24T07:16:22;25.67;;;5.43;;
5841;SDS011;2947;52.276;9.946;2023-05-24T07:18:48;27.92;;;5.97;;
5841;SDS011;2947;52.276;9.946;2023-05-24T07:21:14;21.20;;;4.85;;
5841;SDS011;2947;52.276;9.946;2023-05-24T07:23:39;26.88;;;4.63;;
5841;SDS011;2947;52.276;9.946;2023-05-24T07:26:05;32.38;;;5.65;;
5841;SDS011;2947;52.276;9.946;2023-05-24T07:28:32;37.45;;;5.30;;
5841;SDS011;2947;52.276;9.946;2023-05-24T07:31:01;24.75;;;5.00;;
5841;SDS011;2947;52.276;9.946;2023-05-24T07:33:28;18.58;;;4.45;;
5841;SDS011;2947;52.276;9.946;2023-05-24T07:35:53;24.95;;;4.65;;
5841;SDS011;2947;52.276;9.946;2023-05-24T07:38:19;26.70;;;5.00;;
5841;SDS011;2947;52.276;9.946;2023-05-24T07:40:45;21.17;;;4.80;;
5841;SDS011;2947;52.276;9.946;2023-05-24T07:43:10;17.75;;;3.42;;
5841;SDS011;2947;52.276;9.946;2023-05-24T07:45:36;16.65;;;4.72;;
5841;SDS011;2947;52.276;9.946;2023-05-24T07:48:02;18.65;;;4.35;;
5841;SDS011;2947;52.276;9.946;2023-05-24T07:50:28;17.05;;;4.38;;
5841;SDS011;2947;52.276;9.946;2023-05-24T07:52:55;22.85;;;5.18;;
5841;SDS011;2947;52.276;9.946;2023-05-24T07:55:21;20.15;;;3.88;;
5841;SDS011;2947;52.276;9.946;2023-05-24T07:57:46;22.88;;;6.60;;
5841;SDS011;2947;52.276;9.946;2023-05-24T08:00:12;20.40;;;4.38;;
5841;SDS011;2947;52.276;9.946;2023-05-24T08:02:41;21.60;;;5.10;;
5841;SDS011;2947;52.276;9.946;2023-05-24T08:05:10;19.00;;;4.13;;
5841;SDS011;2947;52.276;9.946;2023-05-24T08:07:37;16.05;;;4.60;;
5841;SDS011;2947;52.276;9.946;2023-05-24T08:10:04;20.60;;;4.82;;
5841;SDS011;2947;52.276;9.946;2023-05-24T08:12:30;20.02;;;5.30;;
5841;SDS011;2947;52.276;9.946;2023-05-24T08:14:56;25.60;;;5.55;;
5841;SDS011;2947;52.276;9.946;2023-05-24T08:17:22;11.63;;;3.78;;
5841;SDS011;2947;52.276;9.946;2023-05-24T08:19:48;21.27;;;4.68;;
5841;SDS011;2947;52.276;9.946;2023-05-24T08:22:14;15.20;;;4.55;;
5841;SDS011;2947;52.276;9.946;2023-05-24T08:24:40;18.27;;;5.38;;
5841;SDS011;2947;52.276;9.946;2023-05-24T08:27:06;15.52;;;3.90;;
5841;SDS011;2947;52.276;9.946;2023-05-24T08:29:32;23.08;;;3.97;;
5841;SDS011;2947;52.276;9.946;2023-05-24T08:31:59;21.23;;;4.97;;
5841;SDS011;2947;52.276;9.946;2023-05-24T08:34:26;16.33;;;5.05;;
5841;SDS011;2947;52.276;9.946;2023-05-24T08:36:52;18.25;;;4.43;;
5841;SDS011;2947;52.276;9.946;2023-05-24T08:39:19;19.63;;;4.85;;
5841;SDS011;2947;52.276;9.946;2023-05-24T08:41:45;18.73;;;4.63;;
5841;SDS011;2947;52.276;9.946;2023-05-24T08:44:10;17.05;;;5.32;;
5841;SDS011;2947;52.276;9.946;2023-05-24T08:46:37;19.38;;;4.45;;
5841;SDS011;2947;52.276;9.946;2023-05-24T08:49:03;21.98;;;4.85;;
5841;SDS011;2947;52.276;9.946;2023-05-24T08:51:29;24.65;;;4.30;;
5841;SDS011;2947;52.276;9.946;2023-05-24T08:53:59;23.75;;;4.50;;
5841;SDS011;2947;52.276;9.946;2023-05-24T08:56:25;21.95;;;4.78;;
5841;SDS011;2947;52.276;9.946;2023-05-24T08:58:53;18.27;;;4.67;;
5841;SDS011;2947;52.276;9.946;2023-05-24T09:01:19;16.33;;;4.40;;
5841;SDS011;2947;52.276;9.946;2023-05-24T09:03:46;17.77;;;4.40;;
5841;SDS011;2947;52.276;9.946;2023-05-24T09:06:12;18.00;;;3.93;;
5841;SDS011;2947;52.276;9.946;2023-05-24T09:08:41;17.80;;;4.70;;
5841;SDS011;2947;52.276;9.946;2023-05-24T09:11:09;19.23;;;4.30;;
5841;SDS011;2947;52.276;9.946;2023-05-24T09:13:36;21.13;;;4.10;;
5841;SDS011;2947;52.276;9.946;2023-05-24T09:16:02;32.13;;;5.23;;
5841;SDS011;2947;52.276;9.946;2023-05-24T09:18:30;18.70;;;5.60;;
5841;SDS011;2947;52.276;9.946;2023-05-24T09:20:56;16.83;;;4.20;;
5841;SDS011;2947;52.276;9.946;2023-05-24T09:23:23;17.13;;;4.77;;
5841;SDS011;2947;52.276;9.946;2023-05-24T09:25:50;18.63;;;4.10;;
5841;SDS011;2947;52.276;9.946;2023-05-24T09:28:16;19.77;;;4.43;;
5841;SDS011;2947;52.276;9.946;2023-05-24T09:30:45;14.77;;;4.13;;
5841;SDS011;2947;52.276;9.946;2023-05-24T09:33:32;12.70;;;4.13;;
5841;SDS011;2947;52.276;9.946;2023-05-24T09:35:59;16.10;;;3.87;;
5841;SDS011;2947;52.276;9.946;2023-05-24T09:38:27;19.37;;;4.83;;
5841;SDS011;2947;52.276;9.946;2023-05-24T09:41:03;20.53;;;4.77;;
5841;SDS011;2947;52.276;9.946;2023-05-24T09:43:31;26.47;;;5.20;;
5841;SDS011;2947;52.276;9.946;2023-05-24T09:46:03;25.93;;;5.50;;
5841;SDS011;2947;52.276;9.946;2023-05-24T09:48:29;14.47;;;4.33;;
5841;SDS011;2947;52.276;9.946;2023-05-24T09:50:56;22.30;;;5.07;;
5841;SDS011;2947;52.276;9.946;2023-05-24T09:53:35;21.45;;;5.82;;
5841;SDS011;2947;52.276;9.946;2023-05-24T09:56:04;18.57;;;5.07;;
5841;SDS011;2947;52.276;9.946;2023-05-24T09:58:32;17.73;;;5.70;;
5841;SDS011;2947;52.276;9.946;2023-05-24T10:01:07;18.00;;;6.05;;
5841;SDS011;2947;52.276;9.946;2023-05-24T10:03:52;20.47;;;5.00;;
5841;SDS011;2947;52.276;9.946;2023-05-24T10:06:23;23.90;;;5.80;;
5841;SDS011;2947;52.276;9.946;2023-05-24T10:08:49;11.80;;;4.83;;
5841;SDS011;2947;52.276;9.946;2023-05-24T10:11:16;28.77;;;6.63;;
5841;SDS011;2947;52.276;9.946;2023-05-24T10:13:43;25.05;;;6.22;;
5841;SDS011;2947;52.276;9.946;2023-05-24T10:16:08;29.93;;;6.17;;
5841;SDS011;2947;52.276;9.946;2023-05-24T10:18:35;19.75;;;5.43;;
5841;SDS011;2947;52.276;9.946;2023-05-24T10:21:01;19.92;;;7.07;;
5841;SDS011;2947;52.276;9.946;2023-05-24T10:23:32;21.33;;;6.10;;
5841;SDS011;2947;52.276;9.946;2023-05-24T10:26:05;19.55;;;5.97;;
5841;SDS011;2947;52.276;9.946;2023-05-24T10:28:35;23.30;;;6.60;;
5841;SDS011;2947;52.276;9.946;2023-05-24T10:31:11;20.35;;;5.65;;
5841;SDS011;2947;52.276;9.946;2023-05-24T10:33:46;16.23;;;5.50;;
5841;SDS011;2947;52.276;9.946;2023-05-24T10:36:12;21.63;;;6.67;;
5841;SDS011;2947;52.276;9.946;2023-05-24T10:38:40;22.73;;;6.00;;
5841;SDS011;2947;52.276;9.946;2023-05-24T10:41:06;26.35;;;6.63;;
5841;SDS011;2947;52.276;9.946;2023-05-24T10:43:33;24.65;;;6.00;;
5841;SDS011;2947;52.276;9.946;2023-05-24T10:46:01;26.10;;;7.40;;
5841;SDS011;2947;52.276;9.946;2023-05-24T10:48:30;20.77;;;6.40;;
5841;SDS011;2947;52.276;9.946;2023-05-24T10:50:59;25.98;;;5.97;;
5841;SDS011;2947;52.276;9.946;2023-05-24T10:53:57;23.83;;;6.33;;
5841;SDS011;2947;52.276;9.946;2023-05-24T10:56:43;26.33;;;6.32;;
5841;SDS011;2947;52.276;9.946;2023-05-24T10:59:21;21.35;;;6.43;;
5841;SDS011;2947;52.276;9.946;2023-05-24T11:01:55;24.25;;;7.32;;
5841;SDS011;2947;52.276;9.946;2023-05-24T11:04:23;25.60;;;6.80;;
5841;SDS011;2947;52.276;9.946;2023-05-24T11:06:56;29.90;;;6.30;;
5841;SDS011;2947;52.276;9.946;2023-05-24T11:09:27;20.67;;;6.07;;
5841;SDS011;2947;52.276;9.946;2023-05-24T11:11:55;27.88;;;6.50;;
5841;SDS011;2947;52.276;9.946;2023-05-24T11:14:26;25.00;;;7.00;;
5841;SDS011;2947;52.276;9.946;2023-05-24T11:16:54;28.55;;;6.30;;
5841;SDS011;2947;52.276;9.946;2023-05-24T11:19:22;21.48;;;6.55;;
5841;SDS011;2947;52.276;9.946;2023-05-24T11:21:55;26.58;;;7.00;;
5841;SDS011;2947;52.276;9.946;2023-05-24T11:24:24;21.73;;;7.00;;
5841;SDS011;2947;52.276;9.946;2023-05-24T11:26:51;28.25;;;8.73;;
5841;SDS011;2947;52.276;9.946;2023-05-24T11:29:17;16.35;;;5.88;;
5841;SDS011;2947;52.276;9.946;2023-05-24T11:31:52;15.13;;;5.97;;
5841;SDS011;2947;52.276;9.946;2023-05-24T11:34:30;14.55;;;6.30;;
5841;SDS011;2947;52.276;9.946;2023-05-24T11:37:02;21.75;;;5.80;;
5841;SDS011;2947;52.276;9.946;2023-05-24T11:39:30;21.40;;;7.30;;
5841;SDS011;2947;52.276;9.946;2023-05-24T11:41:57;29.90;;;6.28;;
5841;SDS011;2947;52.276;9.946;2023-05-24T11:44:26;14.30;;;6.35;;
5841;SDS011;2947;52.276;9.946;2023-05-24T11:46:56;22.55;;;6.78;;
5841;SDS011;2947;52.276;9.946;2023-05-24T11:49:26;16.70;;;6.65;;
5841;SDS011;2947;52.276;9.946;2023-05-24T11:51:53;25.02;;;6.80;;
5841;SDS011;2947;52.276;9.946;2023-05-24T11:54:21;24.33;;;6.68;;
5841;SDS011;2947;52.276;9.946;2023-05-24T11:56:47;25.98;;;6.82;;
5841;SDS011;2947;52.276;9.946;2023-05-24T12:01:41;16.05;;;6.70;;
5841;SDS011;2947;52.276;9.946;2023-05-24T12:04:07;19.98;;;6.05;;
5841;SDS011;2947;52.276;9.946;2023-05-24T12:06:34;27.40;;;7.03;;
5841;SDS011;2947;52.276;9.946;2023-05-24T12:09:10;28.35;;;7.25;;
5841;SDS011;2947;52.276;9.946;2023-05-24T12:11:41;22.67;;;7.05;;
5841;SDS011;2947;52.276;9.946;2023-05-24T12:14:10;25.45;;;6.47;;
5841;SDS011;2947;52.276;9.946;2023-05-24T12:16:38;15.45;;;6.68;;
5841;SDS011;2947;52.276;9.946;2023-05-24T12:19:04;23.95;;;7.13;;
5841;SDS011;2947;52.276;9.946;2023-05-24T12:21:30;17.02;;;6.63;;
5841;SDS011;2947;52.276;9.946;2023-05-24T12:24:03;22.52;;;6.68;;
5841;SDS011;2947;52.276;9.946;2023-05-24T12:26:39;16.55;;;5.97;;
5841;SDS011;2947;52.276;9.946;2023-05-24T12:29:10;26.58;;;6.80;;
5841;SDS011;2947;52.276;9.946;2023-05-24T12:31:46;34.00;;;7.20;;
5841;SDS011;2947;52.276;9.946;2023-05-24T12:34:13;23.98;;;6.50;;
5841;SDS011;2947;52.276;9.946;2023-05-24T12:36:41;25.80;;;6.43;;
5841;SDS011;2947;52.276;9.946;2023-05-24T12:41:55;23.80;;;7.65;;
5841;SDS011;2947;52.276;9.946;2023-05-24T12:44:23;25.77;;;8.05;;
5841;SDS011;2947;52.276;9.946;2023-05-24T12:46:53;30.70;;;8.55;;
5841;SDS011;2947;52.276;9.946;2023-05-24T12:49:20;26.58;;;9.10;;
5841;SDS011;2947;52.276;9.946;2023-05-24T12:51:47;29.42;;;8.40;;
5841;SDS011;2947;52.276;9.946;2023-05-24T12:54:13;27.75;;;7.70;;
5841;SDS011;2947;52.276;9.946;2023-05-24T12:56:39;20.83;;;6.63;;
5841;SDS011;2947;52.276;9.946;2023-05-24T12:59:05;33.88;;;7.20;;
5841;SDS011;2947;52.276;9.946;2023-05-24T13:01:31;20.98;;;6.78;;
5841;SDS011;2947;52.276;9.946;2023-05-24T13:03:56;27.23;;;7.93;;
5841;SDS011;2947;52.276;9.946;2023-05-24T13:06:23;15.52;;;6.88;;
5841;SDS011;2947;52.276;9.946;2023-05-24T13:08:49;22.13;;;5.93;;
5841;SDS011;2947;52.276;9.946;2023-05-24T13:11:16;24.42;;;6.50;;
5841;SDS011;2947;52.276;9.946;2023-05-24T13:13:41;18.15;;;6.93;;
5841;SDS011;2947;52.276;9.946;2023-05-24T13:16:08;14.82;;;6.72;;
5841;SDS011;2947;52.276;9.946;2023-05-24T13:18:34;24.80;;;8.10;;
5841;SDS011;2947;52.276;9.946;2023-05-24T13:21:01;25.80;;;7.15;;
5841;SDS011;2947;52.276;9.946;2023-05-24T13:23:29;16.17;;;6.53;;
5841;SDS011;2947;52.276;9.946;2023-05-24T13:25:56;20.73;;;6.72;;
5841;SDS011;2947;52.276;9.946;2023-05-24T13:28:21;17.40;;;6.03;;
5841;SDS011;2947;52.276;9.946;2023-05-24T13:30:47;27.77;;;6.18;;
5841;SDS011;2947;52.276;9.946;2023-05-24T13:33:13;24.70;;;7.15;;
5841;SDS011;2947;52.276;9.946;2023-05-24T13:35:39;24.40;;;7.00;;
5841;SDS011;2947;52.276;9.946;2023-05-24T13:38:06;15.88;;;5.50;;
5841;SDS011;2947;52.276;9.946;2023-05-24T13:40:32;20.10;;;6.70;;
5841;SDS011;2947;52.276;9.946;2023-05-24T13:43:01;28.67;;;7.00;;
5841;SDS011;2947;52.276;9.946;2023-05-24T13:45:26;27.50;;;6.35;;
5841;SDS011;2947;52.276;9.946;2023-05-24T13:47:55;21.52;;;7.05;;
5841;SDS011;2947;52.276;9.946;2023-05-24T13:50:27;12.98;;;6.15;;
5841;SDS011;2947;52.276;9.946;2023-05-24T13:53:00;24.27;;;8.50;;
5841;SDS011;2947;52.276;9.946;2023-05-24T13:55:31;20.48;;;6.68;;
5841;SDS011;2947;52.276;9.946;2023-05-24T13:57:59;16.15;;;6.78;;
5841;SDS011;2947;52.276;9.946;2023-05-24T14:00:25;15.65;;;5.72;;
5841;SDS011;2947;52.276;9.946;2023-05-24T14:02:51;17.40;;;5.45;;
5841;SDS011;2947;52.276;9.946;2023-05-24T14:05:18;18.33;;;6.15;;
5841;SDS011;2947;52.276;9.946;2023-05-24T14:07:45;14.52;;;6.00;;
5841;SDS011;2947;52.276;9.946;2023-05-24T14:10:11;16.67;;;5.72;;
5841;SDS011;2947;52.276;9.946;2023-05-24T14:12:37;21.65;;;6.93;;
5841;SDS011;2947;52.276;9.946;2023-05-24T14:15:03;15.63;;;5.70;;
5841;SDS011;2947;52.276;9.946;2023-05-24T14:17:30;21.08;;;5.13;;
5841;SDS011;2947;52.276;9.946;2023-05-24T14:19:56;19.17;;;5.25;;
5841;SDS011;2947;52.276;9.946;2023-05-24T14:22:22;18.55;;;5.38;;
5841;SDS011;2947;52.276;9.946;2023-05-24T14:24:49;16.60;;;4.70;;
5841;SDS011;2947;52.276;9.946;2023-05-24T14:27:16;21.65;;;5.03;;
5841;SDS011;2947;52.276;9.946;2023-05-24T14:29:41;15.13;;;4.82;;
5841;SDS011;2947;52.276;9.946;2023-05-24T14:32:07;12.57;;;5.20;;
5841;SDS011;2947;52.276;9.946;2023-05-24T14:34:34;16.48;;;4.78;;
5841;SDS011;2947;52.276;9.946;2023-05-24T14:37:00;11.82;;;4.88;;
5841;SDS011;2947;52.276;9.946;2023-05-24T14:39:27;12.60;;;4.28;;
5841;SDS011;2947;52.276;9.946;2023-05-24T14:41:53;17.35;;;5.05;;
5841;SDS011;2947;52.276;9.946;2023-05-24T14:44:19;14.68;;;5.22;;
5841;SDS011;2947;52.276;9.946;2023-05-24T14:46:45;18.98;;;4.57;;
5841;SDS011;2947;52.276;9.946;2023-05-24T14:49:11;13.45;;;5.35;;
5841;SDS011;2947;52.276;9.946;2023-05-24T14:51:37;10.18;;;4.25;;
5841;SDS011;2947;52.276;9.946;2023-05-24T14:54:03;14.93;;;4.80;;
5841;SDS011;2947;52.276;9.946;2023-05-24T14:56:28;14.73;;;4.85;;
5841;SDS011;2947;52.276;9.946;2023-05-24T14:58:55;14.25;;;4.90;;
5841;SDS011;2947;52.276;9.946;2023-05-24T15:01:21;11.25;;;4.10;;
5841;SDS011;2947;52.276;9.946;2023-05-24T15:03:47;13.85;;;4.15;;
5841;SDS011;2947;52.276;9.946;2023-05-24T15:06:13;9.75;;;4.05;;
5841;SDS011;2947;52.276;9.946;2023-05-24T15:08:39;18.25;;;4.45;;
5841;SDS011;2947;52.276;9.946;2023-05-24T15:11:05;13.77;;;5.15;;
5841;SDS011;2947;52.276;9.946;2023-05-24T15:13:31;15.25;;;5.10;;
5841;SDS011;2947;52.276;9.946;2023-05-24T15:15:57;20.08;;;4.82;;
5841;SDS011;2947;52.276;9.946;2023-05-24T15:18:24;9.55;;;4.47;;
5841;SDS011;2947;52.276;9.946;2023-05-24T15:20:52;9.07;;;4.22;;